createdAt,value
2022-10-26T00:00:53.602Z,101361.50
2022-10-26T00:03:20.057Z,101365.59
2022-10-26T00:05:46.544Z,101368.88
2022-10-26T00:08:13.017Z,101355.63
2022-10-26T00:10:39.781Z,101363.78
2022-10-26T00:13:10.101Z,101356.47
2022-10-26T00:15:40.730Z,101353.19
2022-10-26T00:18:07.131Z,101352.94
2022-10-26T00:20:33.547Z,101350.34
2022-10-26T00:22:59.961Z,101358.81
2022-10-26T00:25:26.396Z,101354.94
2022-10-26T00:27:52.970Z,101356.31
2022-10-26T00:30:19.389Z,101357.22
2022-10-26T00:32:45.812Z,101351.66
2022-10-26T00:35:22.861Z,101353.03
2022-10-26T00:37:56.163Z,101369.31
2022-10-26T00:40:27.964Z,101363.31
2022-10-26T00:42:54.499Z,101365.91
2022-10-26T00:45:26.767Z,101370.31
2022-10-26T00:48:06.573Z,101365.78
2022-10-26T00:50:40.703Z,101370.31
2022-10-26T00:53:08.253Z,101370.88
2022-10-26T00:55:44.534Z,101376.22
2022-10-26T00:58:11.920Z,101370.69
2022-10-26T01:00:40.212Z,101374.38
2022-10-26T01:03:09.185Z,101366.59
2022-10-26T01:05:40.236Z,101368.75
2022-10-26T01:08:07.596Z,101372.94
2022-10-26T01:10:35.785Z,101374.84
2022-10-26T01:13:03.042Z,101377.22
2022-10-26T01:15:49.697Z,101373.34
2022-10-26T01:18:59.765Z,101356.75
2022-10-26T01:21:46.632Z,101364.53
2022-10-26T01:24:28.861Z,101373.59
2022-10-26T01:27:22.892Z,101369.88
2022-10-26T01:29:49.253Z,101371.22
2022-10-26T01:32:35.448Z,101374.03
2022-10-26T01:35:23.691Z,101376.44
2022-10-26T01:38:11.608Z,101376.00
2022-10-26T01:40:43.782Z,101366.94
2022-10-26T01:43:13.597Z,101372.97
2022-10-26T01:45:45.258Z,101364.34
2022-10-26T01:48:16.201Z,101354.19
2022-10-26T01:50:46.818Z,101347.41
2022-10-26T01:53:16.984Z,101345.13
2022-10-26T01:55:50.655Z,101338.69
2022-10-26T01:58:31.981Z,101349.09
2022-10-26T02:01:12.722Z,101352.03
2022-10-26T02:03:39.228Z,101348.66
2022-10-26T02:06:11.412Z,101345.03
2022-10-26T02:08:58.408Z,101336.78
2022-10-26T02:11:38.238Z,101351.59
2022-10-26T02:14:39.258Z,101356.81
2022-10-26T02:17:10.697Z,101361.44
2022-10-26T02:20:09.056Z,101345.72
2022-10-26T02:22:40.464Z,101347.63
2022-10-26T02:25:11.161Z,101348.66
2022-10-26T02:27:44.477Z,101357.34
2022-10-26T02:30:12.834Z,101345.94
2022-10-26T02:32:44.458Z,101355.63
2022-10-26T02:35:15.204Z,101349.53
2022-10-26T02:37:43.894Z,101343.13
2022-10-26T02:40:14.251Z,101347.16
2022-10-26T02:42:43.981Z,101351.25
2022-10-26T02:45:15.239Z,101354.63
2022-10-26T02:47:41.708Z,101351.81
2022-10-26T02:50:08.622Z,101351.81
2022-10-26T02:52:54.653Z,101341.53
2022-10-26T02:55:27.429Z,101333.41
2022-10-26T02:58:02.195Z,101326.16
2022-10-26T03:00:30.687Z,101344.25
2022-10-26T03:02:59.372Z,101342.53
2022-10-26T03:05:27.998Z,101339.63
2022-10-26T03:07:55.291Z,101339.63
2022-10-26T03:10:22.261Z,101339.38
2022-10-26T03:12:49.196Z,101338.81
2022-10-26T03:15:15.826Z,101332.03
2022-10-26T03:17:42.574Z,101321.50
2022-10-26T03:20:09.745Z,101325.91
2022-10-26T03:22:36.157Z,101328.97
2022-10-26T03:25:03.155Z,101337.78
2022-10-26T03:27:30.031Z,101330.09
2022-10-26T03:29:57.740Z,101336.19
2022-10-26T03:32:24.277Z,101329.16
2022-10-26T03:34:50.711Z,101328.41
2022-10-26T03:37:17.116Z,101326.00
2022-10-26T03:39:43.508Z,101329.63
2022-10-26T03:42:09.948Z,101329.97
2022-10-26T03:44:36.372Z,101335.06
2022-10-26T03:47:02.847Z,101340.25
2022-10-26T03:49:29.273Z,101335.72
2022-10-26T03:51:55.674Z,101337.44
2022-10-26T03:54:22.111Z,101340.25
2022-10-26T03:56:52.655Z,101341.16
2022-10-26T03:59:21.455Z,101341.16
2022-10-26T04:01:47.945Z,101338.47
2022-10-26T04:04:14.446Z,101337.78
2022-10-26T04:06:40.908Z,101331.22
2022-10-26T04:09:08.247Z,101333.81
2022-10-26T04:11:34.945Z,101326.91
2022-10-26T04:14:01.363Z,101321.38
2022-10-26T04:16:31.106Z,101311.31
2022-10-26T04:19:00.015Z,101312.13
2022-10-26T04:21:26.505Z,101311.31
2022-10-26T04:23:52.897Z,101309.41
2022-10-26T04:26:19.396Z,101313.31
2022-10-26T04:28:45.847Z,101319.66
2022-10-26T04:31:12.257Z,101328.56
2022-10-26T04:33:38.697Z,101337.28
2022-10-26T04:36:05.356Z,101341.81
2022-10-26T04:38:31.794Z,101349.81
2022-10-26T04:40:58.236Z,101350.72
2022-10-26T04:43:24.708Z,101357.63
2022-10-26T04:45:55.083Z,101353.44
2022-10-26T04:48:21.570Z,101356.03
2022-10-26T04:50:48.060Z,101358.84
2022-10-26T04:53:15.730Z,101357.84
2022-10-26T04:55:42.456Z,101363.03
2022-10-26T04:58:08.952Z,101359.31
2022-10-26T05:00:35.436Z,101368.69
2022-10-26T05:03:03.794Z,101379.97
2022-10-26T05:05:34.645Z,101373.88
2022-10-26T05:08:01.301Z,101379.28
2022-10-26T05:10:28.404Z,101373.19
2022-10-26T05:12:56.602Z,101382.16
2022-10-26T05:15:23.411Z,101385.16
2022-10-26T05:18:15.889Z,101382.22
2022-10-26T05:20:42.333Z,101368.56
2022-10-26T05:23:11.675Z,101374.78
2022-10-26T05:25:38.684Z,101379.06
2022-10-26T05:28:08.452Z,101369.84
2022-10-26T05:30:34.966Z,101366.91
2022-10-26T05:33:05.803Z,101377.75
2022-10-26T05:35:32.581Z,101384.75
2022-10-26T05:37:59.572Z,101373.47
2022-10-26T05:40:26.248Z,101369.84
2022-10-26T05:42:52.970Z,101370.63
2022-10-26T05:45:19.787Z,101373.47
2022-10-26T05:47:46.997Z,101374.50
2022-10-26T05:50:14.222Z,101372.00
2022-10-26T05:52:45.224Z,101379.69
2022-10-26T05:55:12.855Z,101391.06
2022-10-26T05:57:39.922Z,101388.38
2022-10-26T06:00:16.479Z,101386.81
2022-10-26T06:03:02.490Z,101381.63
2022-10-26T06:05:35.627Z,101386.69
2022-10-26T06:08:02.276Z,101385.88
2022-10-26T06:10:29.027Z,101382.63
2022-10-26T06:12:55.761Z,101392.44
2022-10-26T06:15:22.565Z,101399.22
2022-10-26T06:18:35.253Z,101394.59
2022-10-26T06:21:13.497Z,101392.00
2022-10-26T06:24:08.278Z,101398.56
2022-10-26T06:26:40.824Z,101405.78
2022-10-26T06:29:14.627Z,101404.22
2022-10-26T06:31:41.049Z,101408.50
2022-10-26T06:34:11.929Z,101405.78
2022-10-26T06:37:13.185Z,101406.38
2022-10-26T06:43:01.600Z,101407.34
2022-10-26T06:45:28.282Z,101417.09
2022-10-26T06:48:02.777Z,101425.25
2022-10-26T06:50:32.406Z,101434.34
2022-10-26T06:53:11.969Z,101429.72
2022-10-26T06:55:44.271Z,101433.22
2022-10-26T06:58:19.317Z,101432.88
2022-10-26T07:00:49.041Z,101430.03
2022-10-26T07:03:15.779Z,101425.03
2022-10-26T07:05:46.141Z,101429.47
2022-10-26T07:08:12.840Z,101427.09
2022-10-26T07:10:39.921Z,101435.00
2022-10-26T07:13:06.875Z,101437.53
2022-10-26T07:15:34.920Z,101442.94
2022-10-26T07:18:05.627Z,101434.25
2022-10-26T07:20:35.457Z,101442.94
2022-10-26T07:23:02.092Z,101440.44
2022-10-26T07:25:28.566Z,101443.25
2022-10-26T07:28:01.393Z,101453.78
2022-10-26T07:30:30.151Z,101462.47
2022-10-26T07:33:04.901Z,101460.31
2022-10-26T07:35:33.084Z,101470.94
2022-10-26T07:39:01.999Z,101470.50
2022-10-26T07:41:28.630Z,101467.34
2022-10-26T07:43:55.053Z,101478.84
2022-10-26T07:46:21.627Z,101478.16
2022-10-26T07:48:48.100Z,101482.38
2022-10-26T07:51:14.645Z,101486.09
2022-10-26T07:53:41.124Z,101481.78
2022-10-26T07:56:08.591Z,101481.13
2022-10-26T07:58:35.112Z,101486.34
2022-10-26T08:01:09.768Z,101495.63
2022-10-26T08:03:36.459Z,101494.03
2022-10-26T08:06:05.009Z,101495.47
2022-10-26T08:08:32.494Z,101505.06
2022-10-26T08:10:59.365Z,101507.66
2022-10-26T08:13:26.257Z,101513.00
2022-10-26T08:15:59.835Z,101508.94
2022-10-26T08:18:26.994Z,101504.63
2022-10-26T08:20:56.387Z,101508.25
2022-10-26T08:23:28.341Z,101502.13
2022-10-26T08:26:04.127Z,101505.25
2022-10-26T08:28:30.597Z,101501.41
2022-10-26T08:30:57.254Z,101507.94
2022-10-26T08:33:24.847Z,101507.53
2022-10-26T08:36:05.475Z,101510.47
2022-10-26T08:38:33.815Z,101513.16
2022-10-26T08:41:07.008Z,101518.84
2022-10-26T08:43:42.801Z,101506.84
2022-10-26T08:46:17.564Z,101510.78
2022-10-26T08:48:48.216Z,101503.59
2022-10-26T08:51:19.682Z,101504.00
2022-10-26T08:53:51.943Z,101505.56
2022-10-26T08:56:23.489Z,101506.91
2022-10-26T08:58:53.806Z,101507.22
2022-10-26T09:01:20.535Z,101504.81
2022-10-26T09:03:47.117Z,101506.72
2022-10-26T09:06:28.501Z,101512.03
2022-10-26T09:09:03.200Z,101509.63
2022-10-26T09:11:40.355Z,101514.66
2022-10-26T09:14:36.029Z,101517.25
2022-10-26T09:17:29.042Z,101517.03
2022-10-26T09:20:26.740Z,101513.41
2022-10-26T09:22:59.016Z,101523.19
2022-10-26T09:25:30.439Z,101522.25
2022-10-26T09:28:00.937Z,101529.19
2022-10-26T09:30:28.070Z,101523.84
2022-10-26T09:33:00.042Z,101521.53
2022-10-26T09:35:31.707Z,101528.75
2022-10-26T09:38:13.432Z,101533.66
2022-10-26T09:40:55.229Z,101533.56
2022-10-26T09:43:50.132Z,101530.06
2022-10-26T09:46:25.113Z,101533.00
2022-10-26T09:48:56.072Z,101533.41
2022-10-26T09:51:23.772Z,101534.63
2022-10-26T09:53:50.415Z,101528.22
2022-10-26T09:56:17.919Z,101541.69
2022-10-26T09:58:52.679Z,101539.06
2022-10-26T10:01:35.495Z,101544.69
2022-10-26T10:04:12.698Z,101542.09
2022-10-26T10:06:43.593Z,101548.81
2022-10-26T10:09:13.905Z,101542.09
2022-10-26T10:11:41.726Z,101550.34
2022-10-26T10:14:14.869Z,101541.13
2022-10-26T10:16:49.874Z,101534.16
2022-10-26T10:19:37.217Z,101537.09
2022-10-26T10:22:24.891Z,101537.16
2022-10-26T10:24:59.888Z,101527.91
2022-10-26T10:27:28.096Z,101525.56
2022-10-26T10:29:59.875Z,101525.41
2022-10-26T10:32:35.369Z,101532.84
2022-10-26T10:35:23.335Z,101534.84
2022-10-26T10:37:51.321Z,101538.03
2022-10-26T10:40:21.298Z,101531.28
2022-10-26T10:42:50.079Z,101534.66
2022-10-26T10:45:23.445Z,101527.81
2022-10-26T10:48:16.648Z,101523.75
2022-10-26T10:50:52.574Z,101524.75
2022-10-26T10:53:45.954Z,101522.22
2022-10-26T10:56:49.878Z,101537.75
2022-10-26T10:59:37.842Z,101529.66
2022-10-26T11:02:28.726Z,101529.56
2022-10-26T11:05:38.998Z,101523.22
2022-10-26T11:08:12.896Z,101521.16
2022-10-26T11:10:44.694Z,101517.81
2022-10-26T11:13:21.962Z,101523.22
2022-10-26T11:15:52.584Z,101509.16
2022-10-26T11:18:26.281Z,101511.63
2022-10-26T11:21:02.292Z,101511.63
2022-10-26T11:23:43.321Z,101511.78
2022-10-26T11:26:15.642Z,101509.72
2022-10-26T11:28:56.001Z,101504.22
2022-10-26T11:31:27.802Z,101505.47
2022-10-26T11:34:17.451Z,101505.19
2022-10-26T11:36:49.236Z,101501.94
2022-10-26T11:39:25.554Z,101502.19
2022-10-26T11:42:09.257Z,101500.03
2022-10-26T11:44:44.118Z,101497.31
2022-10-26T11:47:23.766Z,101493.34
2022-10-26T11:50:04.881Z,101502.72
2022-10-26T11:52:46.480Z,101496.56
2022-10-26T11:55:13.001Z,101498.59
2022-10-26T11:57:41.842Z,101495.13
2022-10-26T12:00:20.643Z,101494.97
2022-10-26T12:02:58.129Z,101494.72
2022-10-26T12:05:35.994Z,101498.69
2022-10-26T12:08:18.770Z,101494.88
2022-10-26T12:10:53.841Z,101497.38
2022-10-26T12:13:40.506Z,101495.75
2022-10-26T12:16:13.278Z,101492.16
2022-10-26T12:18:55.474Z,101484.63
2022-10-26T12:21:27.514Z,101480.06
2022-10-26T12:24:23.025Z,101492.59
2022-10-26T12:26:56.604Z,101490.78
2022-10-26T12:29:35.703Z,101487.47
2022-10-26T12:32:03.555Z,101483.88
2022-10-26T12:34:29.913Z,101487.00
2022-10-26T12:36:56.285Z,101485.03
2022-10-26T12:39:33.794Z,101476.84
2022-10-26T12:42:06.008Z,101481.22
2022-10-26T12:44:48.292Z,101473.41
2022-10-26T12:47:30.014Z,101471.63
2022-10-26T12:50:09.353Z,101463.84
2022-10-26T12:52:55.874Z,101469.84
2022-10-26T12:55:50.365Z,101469.59
2022-10-26T12:58:31.034Z,101462.28
2022-10-26T13:01:00.194Z,101461.91
2022-10-26T13:04:02.155Z,101463.25
2022-10-26T13:06:44.332Z,101463.75
2022-10-26T13:09:20.117Z,101463.34
2022-10-26T13:11:52.154Z,101453.84
2022-10-26T13:14:33.928Z,101454.88
2022-10-26T13:17:01.963Z,101456.38
2022-10-26T13:19:39.422Z,101453.44
2022-10-26T13:22:06.085Z,101451.31
2022-10-26T13:24:35.136Z,101451.50
2022-10-26T13:27:04.555Z,101460.19
2022-10-26T13:29:32.322Z,101446.09
2022-10-26T13:31:59.934Z,101452.97
2022-10-26T13:34:31.392Z,101445.91
2022-10-26T13:37:23.393Z,101440.66
2022-10-26T13:39:55.714Z,101444.94
2022-10-26T13:42:27.546Z,101444.94
2022-10-26T13:45:10.256Z,101439.69
2022-10-26T13:47:44.676Z,101446.66
2022-10-26T13:50:26.521Z,101449.38
2022-10-26T13:53:01.855Z,101443.69
2022-10-26T13:55:44.892Z,101442.06
2022-10-26T13:58:26.605Z,101442.41
2022-10-26T14:01:12.713Z,101446.09
2022-10-26T14:03:40.353Z,101437.06
2022-10-26T14:06:13.998Z,101445.84
2022-10-26T14:08:42.589Z,101439.03
2022-10-26T14:11:13.336Z,101444.28
2022-10-26T14:13:42.617Z,101442.31
2022-10-26T14:16:12.926Z,101442.06
2022-10-26T14:18:42.405Z,101443.00
2022-10-26T14:21:16.123Z,101447.31
2022-10-26T14:23:45.712Z,101451.50
2022-10-26T14:26:28.941Z,101452.03
2022-10-26T14:29:01.026Z,101453.63
2022-10-26T14:31:30.616Z,101453.44
2022-10-26T14:33:58.905Z,101449.09
2022-10-26T14:36:44.476Z,101458.03
2022-10-26T14:39:23.969Z,101451.13
2022-10-26T14:41:53.003Z,101450.81
2022-10-26T14:44:25.191Z,101451.50
2022-10-26T14:46:52.504Z,101446.88
2022-10-26T14:49:28.705Z,101450.16
2022-10-26T14:54:33.753Z,101449.75
2022-10-26T14:57:08.481Z,101449.66
2022-10-26T14:59:34.942Z,101448.84
2022-10-26T15:02:12.730Z,101453.09
2022-10-26T15:04:41.427Z,101459.06
2022-10-26T15:07:18.652Z,101448.53
2022-10-26T15:09:50.064Z,101452.78
2022-10-26T15:12:45.542Z,101454.41
2022-10-26T15:15:14.707Z,101458.50
2022-10-26T15:17:51.623Z,101459.25
2022-10-26T15:20:21.504Z,101465.28
2022-10-26T15:23:03.463Z,101466.19
2022-10-26T15:25:33.577Z,101467.81
2022-10-26T15:28:38.998Z,101465.84
2022-10-26T15:31:29.145Z,101463.69
2022-10-26T15:33:55.503Z,101464.25
2022-10-26T15:36:24.729Z,101465.72
2022-10-26T15:38:55.536Z,101464.72
2022-10-26T15:41:27.768Z,101477.34
2022-10-26T15:44:08.982Z,101468.16
2022-10-26T15:46:38.603Z,101467.91
2022-10-26T15:49:06.941Z,101468.44
2022-10-26T15:51:34.212Z,101468.16
2022-10-26T15:54:04.800Z,101473.25
2022-10-26T15:56:32.058Z,101477.31
2022-10-26T15:58:58.933Z,101474.44
2022-10-26T16:01:27.515Z,101477.50
2022-10-26T16:03:54.744Z,101482.38
2022-10-26T16:07:14.130Z,101477.78
2022-10-26T16:09:42.228Z,101486.91
2022-10-26T16:12:13.157Z,101488.13
2022-10-26T16:15:03.863Z,101493.00
2022-10-26T16:17:26.577Z,101490.03
2022-10-26T16:19:52.994Z,101497.47
2022-10-26T16:22:19.394Z,101490.13
2022-10-26T16:24:45.773Z,101493.28
2022-10-26T16:27:12.207Z,101494.72
2022-10-26T16:29:38.627Z,101498.84
2022-10-26T16:32:05.272Z,101500.47
2022-10-26T16:34:31.680Z,101504.50
2022-10-26T16:36:58.105Z,101511.25
2022-10-26T16:39:24.490Z,101518.63
2022-10-26T16:41:51.373Z,101520.13
2022-10-26T16:44:17.831Z,101519.94
2022-10-26T16:46:44.318Z,101519.47
2022-10-26T16:49:10.845Z,101521.88
2022-10-26T16:51:37.275Z,101529.63
2022-10-26T16:54:03.930Z,101528.63
2022-10-26T16:56:30.414Z,101530.13
2022-10-26T16:58:57.232Z,101539.22
2022-10-26T17:01:24.052Z,101539.69
2022-10-26T17:03:52.154Z,101539.50
2022-10-26T17:06:19.596Z,101542.50
2022-10-26T17:08:46.133Z,101541.19
2022-10-26T17:11:15.091Z,101546.19
2022-10-26T17:13:42.164Z,101555.75
2022-10-26T17:16:13.868Z,101554.13
2022-10-26T17:18:41.879Z,101557.56
2022-10-26T17:21:10.129Z,101555.03
2022-10-26T17:23:36.691Z,101556.88
2022-10-26T17:26:08.829Z,101554.72
2022-10-26T17:28:35.640Z,101557.94
2022-10-26T17:31:11.060Z,101562.19
2022-10-26T17:33:39.035Z,101571.50
2022-10-26T17:36:07.566Z,101578.13
2022-10-26T17:38:36.488Z,101575.59
2022-10-26T17:41:05.396Z,101575.41
2022-10-26T17:43:33.460Z,101578.63
2022-10-26T17:46:01.313Z,101582.81
2022-10-26T17:48:28.909Z,101584.13
2022-10-26T17:50:57.927Z,101593.56
2022-10-26T17:53:24.472Z,101597.09
2022-10-26T17:55:50.888Z,101591.88
2022-10-26T17:58:17.351Z,101597.88
2022-10-26T18:00:47.863Z,101601.88
2022-10-26T18:03:16.289Z,101603.16
2022-10-26T18:05:49.480Z,101603.88
2022-10-26T18:08:15.857Z,101606.97
2022-10-26T18:10:50.281Z,101606.75
2022-10-26T18:13:18.513Z,101614.25
2022-10-26T18:15:45.585Z,101619.25
2022-10-26T18:18:12.355Z,101618.84
2022-10-26T18:20:39.077Z,101628.25
2022-10-26T18:23:05.885Z,101622.25
2022-10-26T18:25:33.708Z,101630.78
2022-10-26T18:28:00.266Z,101630.88
2022-10-26T18:30:26.855Z,101629.09
2022-10-26T18:32:53.829Z,101635.38
2022-10-26T18:35:20.902Z,101638.34
2022-10-26T18:37:47.374Z,101632.59
2022-10-26T18:40:14.015Z,101637.91
2022-10-26T18:42:40.438Z,101643.34
2022-10-26T18:45:07.137Z,101636.22
2022-10-26T18:47:33.725Z,101641.22
2022-10-26T18:50:00.108Z,101639.38
2022-10-26T18:52:29.904Z,101649.59
2022-10-26T18:54:56.480Z,101649.59
2022-10-26T18:57:26.991Z,101647.56
2022-10-26T18:59:54.880Z,101649.94
2022-10-26T19:02:22.907Z,101654.13
2022-10-26T19:04:52.986Z,101650.03
2022-10-26T19:07:19.568Z,101651.28
2022-10-26T19:09:46.032Z,101650.13
2022-10-26T19:12:12.445Z,101644.94
2022-10-26T19:14:38.922Z,101648.44
2022-10-26T19:17:05.391Z,101648.22
2022-10-26T19:19:31.795Z,101646.97
2022-10-26T19:22:00.255Z,101649.56
2022-10-26T19:24:26.692Z,101653.84
2022-10-26T19:26:54.030Z,101646.84
2022-10-26T19:29:20.990Z,101654.78
2022-10-26T19:31:50.714Z,101662.81
2022-10-26T19:34:17.869Z,101660.66
2022-10-26T19:36:46.230Z,101662.81
2022-10-26T19:39:14.852Z,101667.19
2022-10-26T19:41:41.630Z,101674.66
2022-10-26T19:44:10.175Z,101669.78
2022-10-26T19:46:37.041Z,101675.91
2022-10-26T19:49:03.805Z,101677.38
2022-10-26T19:51:31.491Z,101680.19
2022-10-26T19:54:06.233Z,101675.81
2022-10-26T19:56:34.637Z,101684.59
2022-10-26T19:59:01.551Z,101679.03
2022-10-26T20:01:28.407Z,101683.69
2022-10-26T20:03:54.847Z,101686.63
2022-10-26T20:06:21.266Z,101693.41
2022-10-26T20:08:48.806Z,101686.97
2022-10-26T20:11:17.090Z,101691.00
2022-10-26T20:13:45.218Z,101702.88
2022-10-26T20:16:12.401Z,101693.25
2022-10-26T20:18:42.637Z,101701.63
2022-10-26T20:21:15.715Z,101704.25
2022-10-26T20:23:43.204Z,101699.25
2022-10-26T20:26:11.847Z,101709.44
2022-10-26T20:28:44.397Z,101712.03
2022-10-26T20:31:10.797Z,101709.44
2022-10-26T20:33:37.247Z,101712.47
2022-10-26T20:36:03.784Z,101718.16
2022-10-26T20:38:30.423Z,101723.00
2022-10-26T20:40:58.696Z,101721.19
2022-10-26T20:43:26.773Z,101719.25
2022-10-26T20:45:54.257Z,101726.75
2022-10-26T20:48:21.377Z,101726.09
2022-10-26T20:51:17.265Z,101728.47
2022-10-26T20:53:51.426Z,101731.09
2022-10-26T20:56:23.738Z,101737.63
2022-10-26T20:58:55.933Z,101743.97
2022-10-26T21:01:30.468Z,101752.81
2022-10-26T21:03:59.895Z,101748.13
2022-10-26T21:06:27.297Z,101748.28
2022-10-26T21:08:55.255Z,101750.88
2022-10-26T21:11:23.698Z,101748.94
2022-10-26T21:13:52.008Z,101752.34
2022-10-26T21:16:18.545Z,101747.25
2022-10-26T21:18:45.266Z,101758.81
2022-10-26T21:21:11.725Z,101763.53
2022-10-26T21:23:40.060Z,101762.59
2022-10-26T21:26:07.636Z,101767.94
2022-10-26T21:28:42.103Z,101759.81
2022-10-26T21:31:10.988Z,101765.41
2022-10-26T21:33:37.660Z,101770.97
2022-10-26T21:36:06.721Z,101766.47
2022-10-26T21:38:34.006Z,101767.03
2022-10-26T21:41:06.906Z,101768.34
2022-10-26T21:43:34.516Z,101771.19
2022-10-26T21:46:04.498Z,101776.91
2022-10-26T21:48:32.317Z,101779.66
2022-10-26T21:51:01.370Z,101774.72
2022-10-26T21:53:28.311Z,101770.44
2022-10-26T21:56:05.848Z,101776.97
2022-10-26T21:58:32.285Z,101780.59
2022-10-26T22:01:12.865Z,101774.38
2022-10-26T22:03:40.415Z,101768.25
2022-10-26T22:06:08.532Z,101777.50
2022-10-26T22:08:36.047Z,101781.50
2022-10-26T22:11:10.565Z,101783.06
2022-10-26T22:13:39.753Z,101779.44
2022-10-26T22:16:12.157Z,101779.56
2022-10-26T22:18:41.508Z,101783.44
2022-10-26T22:21:08.660Z,101782.69
2022-10-26T22:23:38.246Z,101793.06
2022-10-26T22:26:06.954Z,101794.63
2022-10-26T22:28:41.566Z,101782.16
2022-10-26T22:31:12.890Z,101785.41
2022-10-26T22:33:39.576Z,101787.13
2022-10-26T22:36:08.269Z,101787.09
2022-10-26T22:38:34.716Z,101791.00
2022-10-26T22:41:01.502Z,101787.63
2022-10-26T22:43:28.507Z,101788.91
2022-10-26T22:46:22.060Z,101799.78
2022-10-26T22:48:53.474Z,101806.50
2022-10-26T22:51:21.591Z,101799.09
2022-10-26T22:53:55.408Z,101792.13
2022-10-26T22:56:23.764Z,101787.53
2022-10-26T22:58:51.981Z,101789.34
2022-10-26T23:01:24.637Z,101787.53
2022-10-26T23:03:52.696Z,101786.41
2022-10-26T23:06:20.539Z,101785.25
2022-10-26T23:08:46.994Z,101790.56
2022-10-26T23:11:16.524Z,101784.22
2022-10-26T23:13:43.289Z,101779.56
2022-10-26T23:16:13.055Z,101783.44
2022-10-26T23:18:40.094Z,101781.22
2022-10-26T23:21:08.031Z,101789.41
2022-10-26T23:23:35.059Z,101782.25
2022-10-26T23:26:02.696Z,101788.91
2022-10-26T23:28:29.179Z,101785.50
2022-10-26T23:30:55.617Z,101787.81
2022-10-26T23:33:22.446Z,101786.78
2022-10-26T23:35:51.315Z,101792.75
2022-10-26T23:38:18.573Z,101788.59
2022-10-26T23:40:56.800Z,101795.88
2022-10-26T23:43:23.746Z,101802.53
2022-10-26T23:45:50.279Z,101797.69
2022-10-26T23:48:21.620Z,101794.91
2022-10-26T23:50:49.691Z,101798.16
2022-10-26T23:53:18.951Z,101790.88
2022-10-26T23:55:46.265Z,101790.34
2022-10-26T23:58:13.370Z,101796.56
